sensor_id;sensor_type;location;lat;lon;timestamp;pressure;altitude;pressure_sealevel;temperature;humidity
78825;BME280;68176;45.554;10.220;2023-04-24T00:01:34;98939.81;;;19.18;48.82
78825;BME280;68176;45.554;10.220;2023-04-24T00:04:05;98949.81;;;19.16;48.83
78825;BME280;68176;45.554;10.220;2023-04-24T00:06:34;98958.59;;;19.17;48.73
78825;BME280;68176;45.554;10.220;2023-04-24T00:09:04;98961.66;;;19.21;48.56
78825;BME280;68176;45.554;10.220;2023-04-24T00:11:34;98963.31;;;19.22;48.85
78825;BME280;68176;45.554;10.220;2023-04-24T00:14:04;98945.75;;;19.07;48.71
78825;BME280;68176;45.554;10.220;2023-04-24T00:16:34;98968.00;;;19.19;48.97
78825;BME280;68176;45.554;10.220;2023-04-24T00:19:04;98946.97;;;19.05;48.85
78825;BME280;68176;45.554;10.220;2023-04-24T00:21:34;98937.97;;;19.12;48.76
78825;BME280;68176;45.554;10.220;2023-04-24T00:24:04;98954.69;;;19.19;48.66
78825;BME280;68176;45.554;10.220;2023-04-24T00:26:34;98951.88;;;19.14;48.71
78825;BME280;68176;45.554;10.220;2023-04-24T00:29:04;98957.41;;;19.13;48.88
78825;BME280;68176;45.554;10.220;2023-04-24T00:31:34;98943.72;;;19.09;48.68
78825;BME280;68176;45.554;10.220;2023-04-24T00:34:04;98939.19;;;19.10;48.93
78825;BME280;68176;45.554;10.220;2023-04-24T00:36:35;98929.03;;;19.00;48.78
78825;BME280;68176;45.554;10.220;2023-04-24T00:39:04;98938.59;;;19.08;48.66
78825;BME280;68176;45.554;10.220;2023-04-24T00:41:38;98923.72;;;19.00;48.69
78825;BME280;68176;45.554;10.220;2023-04-24T00:44:04;98930.22;;;19.04;48.77
78825;BME280;68176;45.554;10.220;2023-04-24T00:46:35;98924.72;;;18.99;48.56
78825;BME280;68176;45.554;10.220;2023-04-24T00:49:14;98911.84;;;18.96;48.95
78825;BME280;68176;45.554;10.220;2023-04-24T00:51:40;98915.09;;;18.98;48.99
78825;BME280;68176;45.554;10.220;2023-04-24T00:54:05;98920.63;;;19.03;48.87
78825;BME280;68176;45.554;10.220;2023-04-24T00:56:34;98902.25;;;18.95;48.93
78825;BME280;68176;45.554;10.220;2023-04-24T00:59:06;98880.81;;;18.84;49.20
78825;BME280;68176;45.554;10.220;2023-04-24T01:01:35;98912.25;;;19.00;49.04
78825;BME280;68176;45.554;10.220;2023-04-24T01:04:18;98916.13;;;18.97;48.96
78825;BME280;68176;45.554;10.220;2023-04-24T01:06:44;98907.78;;;18.87;49.17
78825;BME280;68176;45.554;10.220;2023-04-24T01:09:11;98937.00;;;18.94;49.46
78825;BME280;68176;45.554;10.220;2023-04-24T01:11:37;98940.88;;;18.91;49.36
78825;BME280;68176;45.554;10.220;2023-04-24T01:14:07;98943.94;;;18.88;49.16
78825;BME280;68176;45.554;10.220;2023-04-24T01:16:37;98966.00;;;18.95;49.28
78825;BME280;68176;45.554;10.220;2023-04-24T01:19:10;98937.03;;;18.81;49.59
78825;BME280;68176;45.554;10.220;2023-04-24T01:21:38;98933.13;;;18.83;49.39
78825;BME280;68176;45.554;10.220;2023-04-24T01:24:07;98951.09;;;18.94;49.55
78825;BME280;68176;45.554;10.220;2023-04-24T01:26:37;98952.72;;;18.95;49.23
78825;BME280;68176;45.554;10.220;2023-04-24T01:29:07;98944.56;;;18.90;49.34
78825;BME280;68176;45.554;10.220;2023-04-24T01:31:39;98914.38;;;18.72;49.44
78825;BME280;68176;45.554;10.220;2023-04-24T01:34:07;98951.31;;;18.86;49.33
78825;BME280;68176;45.554;10.220;2023-04-24T01:36:37;98925.81;;;18.66;49.57
78825;BME280;68176;45.554;10.220;2023-04-24T01:39:07;98927.81;;;18.77;49.35
78825;BME280;68176;45.554;10.220;2023-04-24T01:41:37;98948.25;;;18.89;49.69
78825;BME280;68176;45.554;10.220;2023-04-24T01:44:08;98927.84;;;18.70;49.63
78825;BME280;68176;45.554;10.220;2023-04-24T01:46:38;98900.69;;;18.61;49.67
78825;BME280;68176;45.554;10.220;2023-04-24T01:49:07;98926.41;;;18.74;49.53
78825;BME280;68176;45.554;10.220;2023-04-24T01:51:38;98924.16;;;18.78;49.53
78825;BME280;68176;45.554;10.220;2023-04-24T01:54:07;98920.09;;;18.69;49.52
78825;BME280;68176;45.554;10.220;2023-04-24T01:56:41;98932.53;;;18.68;49.79
78825;BME280;68176;45.554;10.220;2023-04-24T01:59:09;98926.59;;;18.66;49.97
78825;BME280;68176;45.554;10.220;2023-04-24T02:01:38;98945.81;;;18.81;49.60
78825;BME280;68176;45.554;10.220;2023-04-24T02:04:08;98928.44;;;18.72;49.71
78825;BME280;68176;45.554;10.220;2023-04-24T02:06:37;98913.13;;;18.61;49.98
78825;BME280;68176;45.554;10.220;2023-04-24T02:09:08;98937.44;;;18.71;49.80
78825;BME280;68176;45.554;10.220;2023-04-24T02:11:38;98926.00;;;18.64;49.94
78825;BME280;68176;45.554;10.220;2023-04-24T02:14:08;98951.72;;;18.77;49.99
78825;BME280;68176;45.554;10.220;2023-04-24T02:16:38;98920.09;;;18.62;49.99
78825;BME280;68176;45.554;10.220;2023-04-24T02:19:08;98939.28;;;18.77;49.89
78825;BME280;68176;45.554;10.220;2023-04-24T02:21:38;98938.88;;;18.67;49.78
78825;BME280;68176;45.554;10.220;2023-04-24T02:24:08;98947.84;;;18.73;49.86
78825;BME280;68176;45.554;10.220;2023-04-24T02:26:38;98941.34;;;18.69;49.85
78825;BME280;68176;45.554;10.220;2023-04-24T02:29:08;98935.63;;;18.65;49.76
78825;BME280;68176;45.554;10.220;2023-04-24T02:31:38;98934.19;;;18.62;50.04
78825;BME280;68176;45.554;10.220;2023-04-24T02:34:08;98922.75;;;18.62;49.71
78825;BME280;68176;45.554;10.220;2023-04-24T02:36:38;98930.72;;;18.62;49.94
78825;BME280;68176;45.554;10.220;2023-04-24T02:39:08;98913.56;;;18.51;49.98
78825;BME280;68176;45.554;10.220;2023-04-24T02:41:38;98938.28;;;18.65;50.13
78825;BME280;68176;45.554;10.220;2023-04-24T02:44:08;98933.56;;;18.54;49.87
78825;BME280;68176;45.554;10.220;2023-04-24T02:46:38;98946.25;;;18.58;50.02
78825;BME280;68176;45.554;10.220;2023-04-24T02:49:08;98952.38;;;18.59;50.22
78825;BME280;68176;45.554;10.220;2023-04-24T02:51:38;98952.38;;;18.59;50.28
78825;BME280;68176;45.554;10.220;2023-04-24T02:54:08;98928.84;;;18.43;50.08
78825;BME280;68176;45.554;10.220;2023-04-24T02:56:38;98937.63;;;18.43;50.11
78825;BME280;68176;45.554;10.220;2023-04-24T02:59:08;98955.84;;;18.53;50.05
78825;BME280;68176;45.554;10.220;2023-04-24T03:01:38;98956.63;;;18.53;50.43
78825;BME280;68176;45.554;10.220;2023-04-24T03:04:08;98949.47;;;18.41;50.32
78825;BME280;68176;45.554;10.220;2023-04-24T03:06:38;98967.47;;;18.52;50.42
78825;BME280;68176;45.554;10.220;2023-04-24T03:09:11;98954.78;;;18.41;50.05
78825;BME280;68176;45.554;10.220;2023-04-24T03:11:38;98936.41;;;18.33;50.39
78825;BME280;68176;45.554;10.220;2023-04-24T03:14:08;98969.53;;;18.50;50.20
78825;BME280;68176;45.554;10.220;2023-04-24T03:16:38;98937.63;;;18.30;50.37
78825;BME280;68176;45.554;10.220;2023-04-24T03:19:08;98958.91;;;18.50;50.27
78825;BME280;68176;45.554;10.220;2023-04-24T03:21:39;98956.25;;;18.50;50.51
78825;BME280;68176;45.554;10.220;2023-04-24T03:24:08;98919.66;;;18.26;50.49
78825;BME280;68176;45.554;10.220;2023-04-24T03:26:38;98943.34;;;18.47;50.19
78825;BME280;68176;45.554;10.220;2023-04-24T03:29:08;98922.13;;;18.34;50.44
78825;BME280;68176;45.554;10.220;2023-04-24T03:31:38;98884.13;;;18.20;50.45
78825;BME280;68176;45.554;10.220;2023-04-24T03:34:08;98923.53;;;18.43;50.30
78825;BME280;68176;45.554;10.220;2023-04-24T03:36:38;98924.38;;;18.37;50.35
78825;BME280;68176;45.554;10.220;2023-04-24T03:39:08;98944.16;;;18.41;50.57
78825;BME280;68176;45.554;10.220;2023-04-24T03:41:38;98931.91;;;18.27;50.43
78825;BME280;68176;45.554;10.220;2023-04-24T03:44:08;98906.59;;;18.18;50.58
78825;BME280;68176;45.554;10.220;2023-04-24T03:46:38;98930.69;;;18.36;50.95
78825;BME280;68176;45.554;10.220;2023-04-24T03:49:08;98887.41;;;18.09;50.86
78825;BME280;68176;45.554;10.220;2023-04-24T03:51:38;98904.53;;;18.20;50.93
78825;BME280;68176;45.554;10.220;2023-04-24T03:54:11;98903.94;;;18.31;50.84
78825;BME280;68176;45.554;10.220;2023-04-24T03:56:38;98873.31;;;18.15;50.88
78825;BME280;68176;45.554;10.220;2023-04-24T03:59:08;98886.16;;;18.31;50.92
78825;BME280;68176;45.554;10.220;2023-04-24T04:01:38;98849.03;;;18.18;50.95
78825;BME280;68176;45.554;10.220;2023-04-24T04:04:08;98879.00;;;18.32;50.89
78825;BME280;68176;45.554;10.220;2023-04-24T04:06:38;98884.31;;;18.25;51.06
78825;BME280;68176;45.554;10.220;2023-04-24T04:09:08;98875.16;;;18.15;51.35
78825;BME280;68176;45.554;10.220;2023-04-24T04:11:38;98880.06;;;18.18;51.01
78825;BME280;68176;45.554;10.220;2023-04-24T04:14:08;98864.13;;;18.11;51.10
78825;BME280;68176;45.554;10.220;2023-04-24T04:16:38;98859.41;;;18.06;50.87
78825;BME280;68176;45.554;10.220;2023-04-24T04:19:11;98855.56;;;18.02;51.13
78825;BME280;68176;45.554;10.220;2023-04-24T04:21:38;98884.53;;;18.10;50.94
78825;BME280;68176;45.554;10.220;2023-04-24T04:24:08;98861.69;;;17.96;51.23
78825;BME280;68176;45.554;10.220;2023-04-24T04:26:38;98882.88;;;18.09;51.23
78825;BME280;68176;45.554;10.220;2023-04-24T04:29:08;98876.56;;;18.10;51.27
78825;BME280;68176;45.554;10.220;2023-04-24T04:31:38;98881.69;;;18.12;51.24
78825;BME280;68176;45.554;10.220;2023-04-24T04:34:08;98883.53;;;18.11;51.29
78825;BME280;68176;45.554;10.220;2023-04-24T04:36:38;98860.22;;;17.94;51.25
78825;BME280;68176;45.554;10.220;2023-04-24T04:39:09;98885.34;;;18.11;51.07
78825;BME280;68176;45.554;10.220;2023-04-24T04:41:38;98880.44;;;18.01;51.28
78825;BME280;68176;45.554;10.220;2023-04-24T04:44:08;98901.47;;;18.09;51.04
78825;BME280;68176;45.554;10.220;2023-04-24T04:46:39;98886.59;;;18.08;51.15
78825;BME280;68176;45.554;10.220;2023-04-24T04:49:08;98878.81;;;18.00;51.13
78825;BME280;68176;45.554;10.220;2023-04-24T04:51:39;98898.22;;;18.07;51.19
78825;BME280;68176;45.554;10.220;2023-04-24T04:54:08;98908.22;;;18.12;51.47
78825;BME280;68176;45.554;10.220;2023-04-24T04:56:38;98874.53;;;17.86;51.35
78825;BME280;68176;45.554;10.220;2023-04-24T04:59:11;98891.47;;;17.98;51.19
78825;BME280;68176;45.554;10.220;2023-04-24T05:01:38;98886.56;;;17.95;51.28
78825;BME280;68176;45.554;10.220;2023-04-24T05:04:08;98861.25;;;17.86;51.35
78825;BME280;68176;45.554;10.220;2023-04-24T05:06:41;98889.81;;;17.97;51.21
78825;BME280;68176;45.554;10.220;2023-04-24T05:09:08;98886.56;;;17.95;51.31
78825;BME280;68176;45.554;10.220;2023-04-24T05:11:39;98878.00;;;17.87;51.48
78825;BME280;68176;45.554;10.220;2023-04-24T05:14:08;98904.31;;;18.01;51.39
78825;BME280;68176;45.554;10.220;2023-04-24T05:16:39;98874.72;;;17.85;51.44
78825;BME280;68176;45.554;10.220;2023-04-24T05:19:12;98894.72;;;18.00;51.32
78825;BME280;68176;45.554;10.220;2023-04-24T05:21:39;98866.97;;;17.83;51.47
78825;BME280;68176;45.554;10.220;2023-04-24T05:24:12;98871.44;;;17.83;51.47
78825;BME280;68176;45.554;10.220;2023-04-24T05:26:38;98887.16;;;17.91;51.29
78825;BME280;68176;45.554;10.220;2023-04-24T05:29:09;98890.66;;;17.98;51.39
78825;BME280;68176;45.554;10.220;2023-04-24T05:31:38;98885.34;;;17.98;51.30
78825;BME280;68176;45.554;10.220;2023-04-24T05:34:09;98890.63;;;17.91;51.37
78825;BME280;68176;45.554;10.220;2023-04-24T05:36:39;98894.28;;;17.90;51.19
78825;BME280;68176;45.554;10.220;2023-04-24T05:39:09;98908.41;;;17.97;51.39
78825;BME280;68176;45.554;10.220;2023-04-24T05:41:39;98888.38;;;17.88;51.65
78825;BME280;68176;45.554;10.220;2023-04-24T05:44:09;98916.16;;;17.99;51.23
78825;BME280;68176;45.554;10.220;2023-04-24T05:46:39;98902.25;;;17.90;51.23
78825;BME280;68176;45.554;10.220;2023-04-24T05:49:12;98896.75;;;17.85;51.16
78825;BME280;68176;45.554;10.220;2023-04-24T05:51:39;98933.50;;;18.01;51.40
78825;BME280;68176;45.554;10.220;2023-04-24T05:54:09;98921.25;;;17.94;51.55
78825;BME280;68176;45.554;10.220;2023-04-24T05:56:39;98906.53;;;17.85;51.37
78825;BME280;68176;45.554;10.220;2023-04-24T05:59:09;98911.03;;;17.84;51.52
78825;BME280;68176;45.554;10.220;2023-04-24T06:01:39;98934.53;;;18.00;51.33
78825;BME280;68176;45.554;10.220;2023-04-24T06:04:09;98931.88;;;18.00;51.66
78825;BME280;68176;45.554;10.220;2023-04-24T06:06:42;98920.41;;;17.93;51.23
78825;BME280;68176;45.554;10.220;2023-04-24T06:09:09;98918.16;;;17.90;51.39
78825;BME280;68176;45.554;10.220;2023-04-24T06:11:39;98929.41;;;17.92;51.31
78825;BME280;68176;45.554;10.220;2023-04-24T06:14:16;98940.22;;;17.97;51.41
78825;BME280;68176;45.554;10.220;2023-04-24T06:16:42;98941.28;;;17.96;51.66
78825;BME280;68176;45.554;10.220;2023-04-24T06:19:09;98933.09;;;17.91;51.53
78825;BME280;68176;45.554;10.220;2023-04-24T06:21:39;98935.34;;;17.94;51.44
78825;BME280;68176;45.554;10.220;2023-04-24T06:24:09;98920.63;;;17.85;51.34
78825;BME280;68176;45.554;10.220;2023-04-24T06:26:39;98940.47;;;18.02;51.42
78825;BME280;68176;45.554;10.220;2023-04-24T06:29:16;98919.22;;;17.89;51.36
78825;BME280;68176;45.554;10.220;2023-04-24T06:31:42;98904.91;;;17.77;51.43
78825;BME280;68176;45.554;10.220;2023-04-24T06:34:09;98925.72;;;17.93;51.16
78825;BME280;68176;45.554;10.220;2023-04-24T06:36:39;98930.25;;;17.99;51.31
78825;BME280;68176;45.554;10.220;2023-04-24T06:39:09;98908.19;;;17.92;51.43
78825;BME280;68176;45.554;10.220;2023-04-24T06:41:39;98928.22;;;18.01;51.47
78825;BME280;68176;45.554;10.220;2023-04-24T06:44:12;98915.53;;;18.03;51.36
78825;BME280;68176;45.554;10.220;2023-04-24T06:46:42;98881.84;;;17.84;51.22
78825;BME280;68176;45.554;10.220;2023-04-24T06:49:09;98886.53;;;17.82;51.25
78825;BME280;68176;45.554;10.220;2023-04-24T06:51:40;98946.56;;;18.09;51.57
78825;BME280;68176;45.554;10.220;2023-04-24T06:54:09;98932.88;;;18.06;50.96
78825;BME280;68176;45.554;10.220;2023-04-24T06:56:39;98919.25;;;18.02;50.96
78825;BME280;68176;45.554;10.220;2023-04-24T06:59:09;98911.47;;;17.94;51.14
78825;BME280;68176;45.554;10.220;2023-04-24T07:01:39;98920.22;;;17.95;50.82
78825;BME280;68176;45.554;10.220;2023-04-24T07:04:12;98938.22;;;18.12;50.90
78825;BME280;68176;45.554;10.220;2023-04-24T07:06:45;98944.56;;;18.11;51.17
78825;BME280;68176;45.554;10.220;2023-04-24T07:09:36;98960.88;;;18.22;50.99
78825;BME280;68176;45.554;10.220;2023-04-24T07:15:29;98955.16;;;18.11;51.76
78825;BME280;68176;45.554;10.220;2023-04-24T07:17:55;98972.13;;;18.24;51.42
78825;BME280;68176;45.554;10.220;2023-04-24T07:20:20;98970.28;;;18.24;51.27
78825;BME280;68176;45.554;10.220;2023-04-24T07:22:49;98975.19;;;18.21;51.17
78825;BME280;68176;45.554;10.220;2023-04-24T07:25:19;98973.56;;;18.26;50.94
78825;BME280;68176;45.554;10.220;2023-04-24T07:27:49;98966.19;;;18.22;50.87
78825;BME280;68176;45.554;10.220;2023-04-24T07:30:19;98990.72;;;18.37;51.18
78825;BME280;68176;45.554;10.220;2023-04-24T07:32:49;98975.19;;;18.21;52.37
78825;BME280;68176;45.554;10.220;2023-04-24T07:35:19;98956.19;;;18.10;52.05
78825;BME280;68176;45.554;10.220;2023-04-24T07:37:50;98970.69;;;18.21;51.89
78825;BME280;68176;45.554;10.220;2023-04-24T07:40:20;98991.53;;;18.31;51.73
78825;BME280;68176;45.554;10.220;2023-04-24T07:42:49;98977.84;;;18.27;51.48
78825;BME280;68176;45.554;10.220;2023-04-24T07:45:23;98979.28;;;18.30;51.18
78825;BME280;68176;45.554;10.220;2023-04-24T07:47:50;98967.81;;;18.23;51.51
78825;BME280;68176;45.554;10.220;2023-04-24T07:50:19;98960.06;;;18.15;51.43
78825;BME280;68176;45.554;10.220;2023-04-24T07:52:50;98974.38;;;18.27;51.41
78825;BME280;68176;45.554;10.220;2023-04-24T07:55:19;98970.28;;;18.18;51.34
78825;BME280;68176;45.554;10.220;2023-04-24T07:57:49;98985.00;;;18.27;51.23
78825;BME280;68176;45.554;10.220;2023-04-24T08:00:20;98984.59;;;18.30;51.17
78825;BME280;68176;45.554;10.220;2023-04-24T08:02:49;98964.56;;;18.14;51.19
78825;BME280;68176;45.554;10.220;2023-04-24T08:05:20;98972.94;;;18.18;51.04
78825;BME280;68176;45.554;10.220;2023-04-24T08:07:49;98967.63;;;18.11;51.13
78825;BME280;68176;45.554;10.220;2023-04-24T08:10:21;98992.97;;;18.27;51.02
78825;BME280;68176;45.554;10.220;2023-04-24T08:12:50;98983.75;;;18.23;51.17
78825;BME280;68176;45.554;10.220;2023-04-24T08:15:20;98995.63;;;18.27;51.12
78825;BME280;68176;45.554;10.220;2023-04-24T08:17:49;98999.28;;;18.26;50.93
78825;BME280;68176;45.554;10.220;2023-04-24T08:20:19;98967.81;;;18.09;50.93
78825;BME280;68176;45.554;10.220;2023-04-24T08:22:50;98964.13;;;18.10;51.16
78825;BME280;68176;45.554;10.220;2023-04-24T08:25:19;98986.63;;;18.21;51.00
78825;BME280;68176;45.554;10.220;2023-04-24T08:27:50;98976.81;;;18.15;50.96
78825;BME280;68176;45.554;10.220;2023-04-24T08:30:20;98978.84;;;18.20;50.86
78825;BME280;68176;45.554;10.220;2023-04-24T08:32:49;98984.75;;;18.22;50.85
78825;BME280;68176;45.554;10.220;2023-04-24T08:35:20;98967.41;;;18.12;50.77
78825;BME280;68176;45.554;10.220;2023-04-24T08:37:50;98980.91;;;18.18;50.86
78825;BME280;68176;45.554;10.220;2023-04-24T08:40:23;98969.44;;;18.10;50.61
78825;BME280;68176;45.554;10.220;2023-04-24T08:42:58;98999.69;;;18.23;50.99
78825;BME280;68176;45.554;10.220;2023-04-24T08:45:24;98964.53;;;18.07;50.84
78825;BME280;68176;45.554;10.220;2023-04-24T08:47:52;98982.09;;;18.22;50.91
78825;BME280;68176;45.554;10.220;2023-04-24T08:50:22;98988.66;;;18.26;50.95
78825;BME280;68176;45.554;10.220;2023-04-24T08:52:52;98981.91;;;18.17;50.87
78825;BME280;68176;45.554;10.220;2023-04-24T08:55:23;98990.31;;;18.27;50.78
78825;BME280;68176;45.554;10.220;2023-04-24T08:57:52;98968.63;;;18.17;50.82
78825;BME280;68176;45.554;10.220;2023-04-24T09:00:21;98989.28;;;18.28;50.88
78825;BME280;68176;45.554;10.220;2023-04-24T09:02:55;98986.63;;;18.28;50.77
78825;BME280;68176;45.554;10.220;2023-04-24T09:05:22;98966.59;;;18.05;50.56
78825;BME280;68176;45.554;10.220;2023-04-24T09:07:55;98991.53;;;18.24;50.57
78825;BME280;68176;45.554;10.220;2023-04-24T09:10:23;98953.09;;;18.07;50.54
78825;BME280;68176;45.554;10.220;2023-04-24T09:12:51;98966.38;;;18.13;50.87
78825;BME280;68176;45.554;10.220;2023-04-24T09:15:21;98990.91;;;18.29;50.35
78825;BME280;68176;45.554;10.220;2023-04-24T09:17:51;98983.75;;;18.29;50.65
78825;BME280;68176;45.554;10.220;2023-04-24T09:20:21;98993.56;;;18.29;50.61
78825;BME280;68176;45.554;10.220;2023-04-24T09:22:54;98992.75;;;18.35;50.41
78825;BME280;68176;45.554;10.220;2023-04-24T09:25:21;98985.19;;;18.32;50.73
78825;BME280;68176;45.554;10.220;2023-04-24T09:27:53;98981.31;;;18.34;50.46
78825;BME280;68176;45.554;10.220;2023-04-24T09:30:21;98966.19;;;18.22;50.70
78825;BME280;68176;45.554;10.220;2023-04-24T09:33:10;98986.22;;;18.31;50.62
78825;BME280;68176;45.554;10.220;2023-04-24T09:35:35;98981.75;;;18.25;50.58
78825;BME280;68176;45.554;10.220;2023-04-24T09:38:01;98968.63;;;18.17;50.57
78825;BME280;68176;45.554;10.220;2023-04-24T09:40:29;98986.63;;;18.28;50.68
78825;BME280;68176;45.554;10.220;2023-04-24T09:42:59;98989.09;;;18.36;50.58
78825;BME280;68176;45.554;10.220;2023-04-24T09:45:36;98976.00;;;18.34;50.42
78825;BME280;68176;45.554;10.220;2023-04-24T09:48:02;98948.22;;;18.10;50.74
78825;BME280;68176;45.554;10.220;2023-04-24T09:50:30;98949.47;;;18.15;50.52
78825;BME280;68176;45.554;10.220;2023-04-24T09:53:04;98945.34;;;18.19;50.52
78825;BME280;68176;45.554;10.220;2023-04-24T09:55:30;98949.06;;;18.18;50.55
78825;BME280;68176;45.554;10.220;2023-04-24T09:58:01;98950.47;;;18.13;50.52
78825;BME280;68176;45.554;10.220;2023-04-24T10:00:31;98980.31;;;18.35;50.48
78825;BME280;68176;45.554;10.220;2023-04-24T10:03:01;98980.53;;;18.34;50.51
78825;BME280;68176;45.554;10.220;2023-04-24T10:05:33;98981.72;;;18.38;50.54
78825;BME280;68176;45.554;10.220;2023-04-24T10:08:02;98961.28;;;18.25;50.71
78825;BME280;68176;45.554;10.220;2023-04-24T10:10:31;98957.22;;;18.23;50.58
78825;BME280;68176;45.554;10.220;2023-04-24T10:13:00;98963.75;;;18.27;50.49
78825;BME280;68176;45.554;10.220;2023-04-24T10:15:30;98933.72;;;18.13;50.24
78825;BME280;68176;45.554;10.220;2023-04-24T10:17:59;98981.72;;;18.44;50.33
78825;BME280;68176;45.554;10.220;2023-04-24T10:20:30;98971.50;;;18.35;50.34
78825;BME280;68176;45.554;10.220;2023-04-24T10:23:00;98973.56;;;18.39;50.34
78825;BME280;68176;45.554;10.220;2023-04-24T10:25:32;98982.53;;;18.38;50.56
78825;BME280;68176;45.554;10.220;2023-04-24T10:28:01;98989.56;;;18.59;50.55
78825;BME280;68176;45.554;10.220;2023-04-24T10:30:32;98992.81;;;18.74;51.81
78825;BME280;68176;45.554;10.220;2023-04-24T10:33:02;98982.16;;;19.00;50.97
78825;BME280;68176;45.554;10.220;2023-04-24T10:35:31;98988.28;;;18.94;51.48
78825;BME280;68176;45.554;10.220;2023-04-24T10:38:13;98984.22;;;18.85;50.66
78825;BME280;68176;45.554;10.220;2023-04-24T10:40:39;98999.72;;;19.14;49.61
78825;BME280;68176;45.554;10.220;2023-04-24T10:43:05;98980.13;;;19.02;51.59
78825;BME280;68176;45.554;10.220;2023-04-24T10:45:33;98998.22;;;19.45;49.40
78825;BME280;68176;45.554;10.220;2023-04-24T10:48:04;98994.69;;;19.64;49.54
78825;BME280;68176;45.554;10.220;2023-04-24T10:50:47;98989.69;;;19.81;49.52
78825;BME280;68176;45.554;10.220;2023-04-24T10:53:18;99001.69;;;19.52;47.63
78825;BME280;68176;45.554;10.220;2023-04-24T10:56:12;99000.34;;;19.81;47.18
78825;BME280;68176;45.554;10.220;2023-04-24T10:58:50;98997.78;;;19.54;49.93
78825;BME280;68176;45.554;10.220;2023-04-24T11:01:32;99001.69;;;19.52;48.55
78825;BME280;68176;45.554;10.220;2023-04-24T11:04:01;98995.00;;;19.87;46.77
78825;BME280;68176;45.554;10.220;2023-04-24T11:06:33;99003.44;;;20.15;46.66
78825;BME280;68176;45.554;10.220;2023-04-24T11:09:10;98994.00;;;20.26;46.58
78825;BME280;68176;45.554;10.220;2023-04-24T11:11:38;98987.41;;;20.29;45.43
78825;BME280;68176;45.554;10.220;2023-04-24T11:14:09;99004.44;;;20.52;45.44
78825;BME280;68176;45.554;10.220;2023-04-24T11:16:42;98994.69;;;20.40;46.48
78825;BME280;68176;45.554;10.220;2023-04-24T11:24:27;98984.13;;;20.27;45.99
78825;BME280;68176;45.554;10.220;2023-04-24T11:27:06;98991.91;;;20.59;45.02
78825;BME280;68176;45.554;10.220;2023-04-24T11:29:40;98982.09;;;20.78;44.61
78825;BME280;68176;45.554;10.220;2023-04-24T11:32:35;98992.53;;;21.04;43.25
78825;BME280;68176;45.554;10.220;2023-04-24T11:35:13;98978.31;;;20.92;44.04
78825;BME280;68176;45.554;10.220;2023-04-24T11:37:47;98985.47;;;21.16;44.73
78825;BME280;68176;45.554;10.220;2023-04-24T11:40:15;98980.56;;;21.13;46.01
78825;BME280;68176;45.554;10.220;2023-04-24T11:42:45;98974.34;;;21.19;44.43
78825;BME280;68176;45.554;10.220;2023-04-24T11:45:12;98978.31;;;20.92;43.59
78825;BME280;68176;45.554;10.220;2023-04-24T11:47:38;98980.03;;;20.80;43.40
78825;BME280;68176;45.554;10.220;2023-04-24T11:50:10;98970.84;;;20.76;41.94
78825;BME280;68176;45.554;10.220;2023-04-24T11:52:39;98967.19;;;20.95;44.87
78825;BME280;68176;45.554;10.220;2023-04-24T11:55:22;98970.72;;;21.32;44.92
78825;BME280;68176;45.554;10.220;2023-04-24T11:57:49;98962.06;;;21.37;43.83
78825;BME280;68176;45.554;10.220;2023-04-24T12:00:16;98960.06;;;21.14;43.60
78825;BME280;68176;45.554;10.220;2023-04-24T12:02:42;98962.50;;;21.15;44.38
78825;BME280;68176;45.554;10.220;2023-04-24T12:05:22;98959.75;;;21.22;45.68
78825;BME280;68176;45.554;10.220;2023-04-24T12:07:48;98947.22;;;21.04;44.67
78825;BME280;68176;45.554;10.220;2023-04-24T12:10:13;98957.84;;;21.11;42.58
78825;BME280;68176;45.554;10.220;2023-04-24T12:12:45;98949.56;;;20.94;43.84
78825;BME280;68176;45.554;10.220;2023-04-24T12:15:12;98946.22;;;20.56;47.79
78825;BME280;68176;45.554;10.220;2023-04-24T12:17:42;98942.34;;;21.19;44.56
78825;BME280;68176;45.554;10.220;2023-04-24T12:20:13;98947.53;;;21.33;45.13
78825;BME280;68176;45.554;10.220;2023-04-24T12:22:46;98948.22;;;21.76;43.12
78825;BME280;68176;45.554;10.220;2023-04-24T12:25:13;98932.56;;;22.09;42.89
78825;BME280;68176;45.554;10.220;2023-04-24T12:27:43;98934.94;;;22.17;42.57
78825;BME280;68176;45.554;10.220;2023-04-24T12:30:14;98917.44;;;21.44;41.52
78825;BME280;68176;45.554;10.220;2023-04-24T12:32:44;98913.25;;;21.66;42.83
78825;BME280;68176;45.554;10.220;2023-04-24T12:35:13;98907.00;;;21.90;42.30
78825;BME280;68176;45.554;10.220;2023-04-24T12:37:42;98922.13;;;21.30;43.29
78825;BME280;68176;45.554;10.220;2023-04-24T12:40:13;98915.13;;;21.95;43.09
78825;BME280;68176;45.554;10.220;2023-04-24T12:42:47;98889.00;;;22.62;41.63
78825;BME280;68176;45.554;10.220;2023-04-24T12:45:13;98883.84;;;22.25;43.64
78825;BME280;68176;45.554;10.220;2023-04-24T12:47:43;98891.06;;;22.60;39.49
78825;BME280;68176;45.554;10.220;2023-04-24T12:50:14;98902.88;;;22.06;41.16
78825;BME280;68176;45.554;10.220;2023-04-24T12:52:43;98904.63;;;22.23;41.20
78825;BME280;68176;45.554;10.220;2023-04-24T12:55:12;98891.19;;;22.42;43.27
78825;BME280;68176;45.554;10.220;2023-04-24T12:57:43;98891.41;;;23.10;41.82
78825;BME280;68176;45.554;10.220;2023-04-24T13:00:13;98881.31;;;23.97;39.54
78825;BME280;68176;45.554;10.220;2023-04-24T13:02:42;98894.50;;;24.65;38.42
78825;BME280;68176;45.554;10.220;2023-04-24T13:05:12;98886.81;;;24.52;37.42
78825;BME280;68176;45.554;10.220;2023-04-24T13:07:42;98882.97;;;24.14;38.45
78825;BME280;68176;45.554;10.220;2023-04-24T13:10:13;98868.97;;;24.79;37.80
78825;BME280;68176;45.554;10.220;2023-04-24T13:12:42;98865.31;;;25.07;38.71
78825;BME280;68176;45.554;10.220;2023-04-24T13:15:12;98870.59;;;24.80;37.82